Time;durP1;ratioP1;P1;durP2;ratioP2;P2;SDS_P1;SDS_P2;PMS_P1;PMS_P2;Temp;Humidity;BMP_temperature;BMP_pressure;BME280_temperature;BME280_humidity;BME280_pressure;Samples;Min_cycle;Max_cycle;Signal;HPM_P1;HPM_P2
2021/07/04 00:00:01;;;;;;;12.20;7.00;;;;;;;15.38;82.34;96393.73;127888;1093;27280;-92
2021/07/04 00:02:33;;;;;;;9.28;6.88;;;;;;;15.36;82.26;96400.48;127890;1093;26327;-92
2021/07/04 00:05:07;;;;;;;11.88;8.08;;;;;;;15.32;82.48;96400.31;127884;1091;26745;-92
2021/07/04 00:07:41;;;;;;;11.68;7.40;;;;;;;15.31;82.44;96401.41;127903;1091;28501;-93
2021/07/04 00:10:16;;;;;;;11.78;6.50;;;;;;;15.33;82.62;96404.55;127880;1091;24377;-92
2021/07/04 00:12:48;;;;;;;9.63;6.58;;;;;;;15.37;82.62;96402.84;127890;1093;24259;-91
2021/07/04 00:15:22;;;;;;;10.50;6.60;;;;;;;15.41;82.57;96400.33;127876;1091;26675;-92
2021/07/04 00:17:54;;;;;;;8.78;6.90;;;;;;;15.41;82.81;96394.98;127964;1090;26273;-92
2021/07/04 00:20:26;;;;;;;13.58;7.30;;;;;;;15.41;82.79;96398.44;127892;1092;26168;-89
2021/07/04 00:22:57;;;;;;;9.60;6.58;;;;;;;15.43;82.73;96398.13;127883;1093;25494;-91
2021/07/04 00:25:30;;;;;;;10.60;7.10;;;;;;;15.43;82.89;96390.89;127888;1090;27745;-92
2021/07/04 00:28:02;;;;;;;12.20;7.28;;;;;;;15.43;83.09;96395.45;127877;1093;27084;-91
2021/07/04 00:30:34;;;;;;;10.83;7.35;;;;;;;15.45;83.04;96399.38;127850;1093;28380;-94
2021/07/04 00:33:07;;;;;;;10.40;7.75;;;;;;;15.49;83.14;96393.42;127890;1093;27019;-92
2021/07/04 00:35:39;;;;;;;11.78;6.70;;;;;;;15.55;82.93;96402.84;127900;1093;27027;-92
2021/07/04 00:38:12;;;;;;;9.93;6.77;;;;;;;15.54;82.89;96394.05;127859;1093;30083;-93
2021/07/04 00:40:43;;;;;;;9.83;6.63;;;;;;;15.54;83.05;96396.72;128320;1093;28885;-93
2021/07/04 00:43:15;;;;;;;8.10;6.10;;;;;;;15.54;83.10;96394.05;129009;1090;29387;-90
2021/07/04 00:45:46;;;;;;;11.28;7.08;;;;;;;15.52;83.22;96393.58;128362;1093;26878;-90
2021/07/04 00:48:18;;;;;;;8.33;5.73;;;;;;;15.51;83.39;96392.01;127947;1093;26540;-96
2021/07/04 00:50:50;;;;;;;10.90;7.00;;;;;;;15.45;83.49;96383.34;127876;1093;24514;-92
2021/07/04 00:53:23;;;;;;;9.90;7.40;;;;;;;15.41;83.49;96382.41;127917;1092;25864;-91
2021/07/04 00:55:55;;;;;;;11.70;6.88;;;;;;;15.39;83.42;96384.61;127928;1093;25684;-94
2021/07/04 00:58:26;;;;;;;10.98;7.28;;;;;;;15.38;83.18;96384.93;127866;1093;23875;-91
2021/07/04 01:00:57;;;;;;;11.38;7.85;;;;;;;15.40;83.42;96383.52;127881;1093;27089;-92
2021/07/04 01:03:30;;;;;;;8.68;6.75;;;;;;;15.42;83.07;96383.98;127901;1093;25896;-93
2021/07/04 01:06:01;;;;;;;13.33;7.20;;;;;;;15.44;82.93;96381.77;127888;1093;27940;-93
2021/07/04 01:08:32;;;;;;;11.33;7.10;;;;;;;15.42;83.07;96385.87;127887;1093;25820;-92
2021/07/04 01:11:04;;;;;;;11.55;7.60;;;;;;;15.38;83.01;96384.93;127892;1093;28192;-93
2021/07/04 01:13:37;;;;;;;13.95;8.20;;;;;;;15.32;82.98;96380.83;127872;1092;26306;-93
2021/07/04 01:16:09;;;;;;;11.28;8.05;;;;;;;15.29;83.14;96381.46;127861;1093;23579;-93
2021/07/04 01:18:40;;;;;;;13.23;9.00;;;;;;;15.29;83.18;96382.25;127897;1093;23604;-93
2021/07/04 01:21:13;;;;;;;12.75;7.50;;;;;;;15.27;83.25;96384.45;127883;1093;27537;-93
2021/07/04 01:23:44;;;;;;;13.23;7.53;;;;;;;15.23;83.00;96388.06;127864;1093;25935;-93
2021/07/04 01:26:16;;;;;;;11.78;8.45;;;;;;;15.18;82.93;96383.64;127867;1093;25858;-93
2021/07/04 01:28:47;;;;;;;10.20;7.30;;;;;;;15.17;82.94;96384.74;127877;1091;24662;-92
2021/07/04 01:31:19;;;;;;;11.15;7.45;;;;;;;15.15;83.03;96379.72;127911;1092;25343;-91
2021/07/04 01:33:50;;;;;;;10.30;7.35;;;;;;;15.14;83.06;96378.15;127948;1090;26382;-92
2021/07/04 01:36:22;;;;;;;11.75;6.85;;;;;;;15.08;83.00;96382.08;127919;1093;25064;-92
2021/07/04 01:38:53;;;;;;;10.43;6.85;;;;;;;15.03;82.98;96379.54;127953;1092;24275;-92
2021/07/04 01:41:25;;;;;;;11.05;7.23;;;;;;;14.97;82.90;96385.36;127951;1091;28232;-92
2021/07/04 01:43:56;;;;;;;12.10;7.58;;;;;;;14.89;83.14;96386.11;127807;1093;26949;-93
2021/07/04 01:46:28;;;;;;;11.15;7.15;;;;;;;14.79;83.41;96382.66;127904;1090;26567;-92
2021/07/04 01:48:59;;;;;;;9.93;6.88;;;;;;;14.75;83.58;96376.34;127851;1093;24883;-91
2021/07/04 01:51:30;;;;;;;11.68;6.90;;;;;;;14.79;83.66;96381.87;127914;1093;26703;-91
2021/07/04 01:54:02;;;;;;;10.30;6.73;;;;;;;14.83;83.71;96382.81;127883;1093;25470;-92
2021/07/04 01:56:33;;;;;;;12.13;7.30;;;;;;;14.83;83.50;96372.14;127886;1093;24064;-91
2021/07/04 01:59:05;;;;;;;11.27;6.83;;;;;;;14.80;83.33;96378.10;127872;1093;28753;-91
2021/07/04 02:01:36;;;;;;;9.55;6.35;;;;;;;14.78;83.38;96375.75;127859;1093;25971;-93
2021/07/04 02:04:08;;;;;;;10.28;7.10;;;;;;;14.75;83.40;96381.68;127884;1093;26746;-90
2021/07/04 02:06:39;;;;;;;11.03;7.08;;;;;;;14.75;83.65;96380.89;127843;1093;27333;-93
2021/07/04 02:09:10;;;;;;;10.65;6.30;;;;;;;14.76;83.58;96385.92;127854;1091;33242;-92
2021/07/04 02:11:45;;;;;;;8.95;6.08;;;;;;;14.76;83.68;96385.92;127873;1093;25375;-92
2021/07/04 02:14:16;;;;;;;9.28;6.10;;;;;;;14.76;83.33;96383.25;127846;1091;28136;-91
2021/07/04 02:16:47;;;;;;;8.40;6.20;;;;;;;14.78;83.46;96381.09;127871;1093;24962;-91
2021/07/04 02:19:19;;;;;;;10.53;6.45;;;;;;;14.77;83.49;96392.83;127865;1093;27706;-91
2021/07/04 02:21:53;;;;;;;10.83;6.83;;;;;;;14.74;83.43;96388.12;127922;1093;35777;-91
2021/07/04 02:24:25;;;;;;;10.10;5.98;;;;;;;14.69;83.28;96388.27;127900;1093;28866;-92
2021/07/04 02:26:56;;;;;;;8.25;6.30;;;;;;;14.67;83.49;96382.45;127921;1093;24719;-91
2021/07/04 02:29:28;;;;;;;8.88;6.48;;;;;;;14.70;83.44;96389.84;127888;1093;25163;-92
2021/07/04 02:31:59;;;;;;;9.40;6.15;;;;;;;14.70;83.69;96394.39;127869;1093;29722;-92
2021/07/04 02:34:32;;;;;;;11.98;7.30;;;;;;;14.66;83.32;96388.89;127882;1093;25110;-92
2021/07/04 02:37:03;;;;;;;10.13;7.08;;;;;;;14.63;83.48;96388.70;127836;1093;26914;-92
2021/07/04 02:39:35;;;;;;;11.23;6.98;;;;;;;14.57;83.75;96388.06;127883;1091;31315;-93
2021/07/04 02:42:06;;;;;;;12.38;8.28;;;;;;;14.60;84.06;96389.33;127896;1090;30771;-93
2021/07/04 02:44:38;;;;;;;12.80;8.93;;;;;;;14.64;84.49;96391.09;127872;1091;28530;-92
2021/07/04 02:47:09;;;;;;;14.58;9.15;;;;;;;14.67;84.75;96389.67;127882;1093;26734;-93
2021/07/04 02:49:41;;;;;;;13.75;9.50;;;;;;;14.70;84.71;96392.51;127875;1093;26001;-92
2021/07/04 02:52:12;;;;;;;12.88;9.35;;;;;;;14.72;85.02;96390.31;127874;1093;26951;-92
2021/07/04 02:54:43;;;;;;;15.33;10.00;;;;;;;14.76;85.19;96396.59;127857;1092;25297;-93
2021/07/04 02:57:15;;;;;;;12.38;9.35;;;;;;;14.81;85.32;96391.13;127864;1090;28666;-93
2021/07/04 02:59:46;;;;;;;12.40;8.48;;;;;;;14.79;84.69;96393.33;127830;1093;36256;-92
2021/07/04 03:02:17;;;;;;;13.50;8.55;;;;;;;14.76;84.47;96401.14;127876;1093;26407;-93
2021/07/04 03:04:49;;;;;;;10.23;6.93;;;;;;;14.69;84.19;96395.48;127856;1092;26455;-91
2021/07/04 03:07:21;;;;;;;8.83;6.63;;;;;;;14.63;84.23;96400.16;127896;1090;24841;-90
2021/07/04 03:09:52;;;;;;;12.33;7.53;;;;;;;14.57;83.96;96404.08;127946;1092;24914;-92
2021/07/04 03:12:24;;;;;;;10.13;7.35;;;;;;;14.53;83.98;96397.79;127941;1093;23863;-90
2021/07/04 03:14:55;;;;;;;13.65;9.33;;;;;;;14.50;84.23;96404.53;127987;1093;24733;-90
2021/07/04 03:17:27;;;;;;;12.45;8.63;;;;;;;14.51;84.57;96398.10;127892;1092;28340;-91
2021/07/04 03:19:58;;;;;;;8.68;6.93;;;;;;;14.52;84.93;96401.55;127861;1093;25157;-92
2021/07/04 03:22:30;;;;;;;10.63;6.93;;;;;;;14.52;84.68;96409.55;127887;1093;24475;-92
2021/07/04 03:25:01;;;;;;;12.88;8.48;;;;;;;14.55;84.98;96404.38;127879;1090;26242;-92
2021/07/04 03:27:32;;;;;;;13.68;8.83;;;;;;;14.62;84.71;96408.48;127888;1092;26852;-91
2021/07/04 03:30:05;;;;;;;14.17;9.27;;;;;;;14.65;84.72;96402.55;127823;1093;25893;-91
2021/07/04 03:32:37;;;;;;;13.40;8.95;;;;;;;14.71;84.74;96407.42;127899;1093;23446;-90
2021/07/04 03:35:11;;;;;;;9.93;7.45;;;;;;;14.80;84.86;96410.91;127886;1093;26380;-90
2021/07/04 03:37:42;;;;;;;10.03;7.58;;;;;;;14.84;84.73;96416.41;127888;1090;26861;-91
2021/07/04 03:40:18;;;;;;;11.80;8.25;;;;;;;14.86;84.77;96414.21;127884;1090;26492;-93
2021/07/04 03:42:51;;;;;;;11.53;8.85;;;;;;;14.86;84.67;96411.55;127888;1093;26317;-91
2021/07/04 03:45:22;;;;;;;13.23;9.83;;;;;;;14.89;84.70;96418.14;127978;1093;26253;-91
2021/07/04 03:47:53;;;;;;;14.18;10.15;;;;;;;14.91;84.86;96415.94;127951;1093;25715;-90
2021/07/04 03:50:25;;;;;;;15.55;9.73;;;;;;;15.00;85.02;96412.20;127929;1091;25086;-91
2021/07/04 03:52:57;;;;;;;15.07;8.77;;;;;;;15.11;85.02;96416.16;127882;1093;26476;-91
2021/07/04 03:55:28;;;;;;;12.13;8.98;;;;;;;15.22;84.96;96415.88;127884;1088;23931;-92
2021/07/04 03:57:59;;;;;;;11.78;8.93;;;;;;;15.26;84.82;96414.14;127885;1093;26848;-90
2021/07/04 04:00:31;;;;;;;10.65;8.65;;;;;;;15.30;84.80;96421.20;127880;1093;23800;-92
2021/07/04 04:03:02;;;;;;;11.03;7.85;;;;;;;15.35;84.92;96417.62;127879;1093;24117;-92
2021/07/04 04:05:36;;;;;;;11.60;8.38;;;;;;;15.37;84.53;96426.09;127882;1093;28992;-91
2021/07/04 04:08:07;;;;;;;13.23;9.03;;;;;;;15.41;84.50;96424.37;127864;1093;26040;-91
2021/07/04 04:10:40;;;;;;;12.13;9.03;;;;;;;15.53;84.83;96429.88;127852;1091;30073;-92
2021/07/04 04:13:11;;;;;;;11.33;8.53;;;;;;;15.62;84.58;96424.55;127886;1093;27100;-91
2021/07/04 04:15:43;;;;;;;10.70;7.47;;;;;;;15.68;84.44;96423.30;127869;1093;29730;-91
2021/07/04 04:18:15;;;;;;;13.20;8.10;;;;;;;15.69;84.31;96422.98;127880;1093;29685;-92
2021/07/04 04:20:46;;;;;;;10.58;7.20;;;;;;;15.73;84.53;96420.47;127858;1093;27240;-92
2021/07/04 04:23:17;;;;;;;10.38;7.90;;;;;;;15.74;84.32;96416.69;127888;1090;30880;-91
2021/07/04 04:25:49;;;;;;;11.95;8.80;;;;;;;15.75;84.37;96426.27;127882;1092;23194;-92
2021/07/04 04:28:20;;;;;;;12.83;8.98;;;;;;;15.76;84.09;96413.70;127916;1093;25681;-92
2021/07/04 04:30:52;;;;;;;12.18;8.18;;;;;;;15.74;84.05;96422.81;127936;1093;26041;-92
2021/07/04 04:33:24;;;;;;;13.35;9.08;;;;;;;15.69;83.98;96424.88;127931;1093;29789;-91
2021/07/04 04:35:55;;;;;;;11.60;8.75;;;;;;;15.71;84.43;96422.67;127944;1093;30060;-92
2021/07/04 04:38:26;;;;;;;11.95;8.88;;;;;;;15.70;84.18;96421.09;127859;1093;27765;-91
2021/07/04 04:40:58;;;;;;;15.13;9.30;;;;;;;15.72;84.27;96427.70;127825;1090;27169;-93
2021/07/04 04:43:29;;;;;;;11.35;8.23;;;;;;;15.77;84.13;96425.98;127910;1093;22873;-91
2021/07/04 04:46:01;;;;;;;15.68;9.70;;;;;;;15.83;84.26;96420.16;127874;1093;26931;-92
2021/07/04 04:48:32;;;;;;;14.83;9.30;;;;;;;15.86;84.02;96422.19;127851;1093;28937;-92
2021/07/04 04:51:03;;;;;;;13.63;9.20;;;;;;;15.92;84.24;96422.83;127892;1090;24432;-92
2021/07/04 04:53:35;;;;;;;10.45;8.45;;;;;;;15.98;84.12;96427.68;127887;1093;24602;-91
2021/07/04 04:56:07;;;;;;;12.25;9.33;;;;;;;16.05;83.91;96427.21;127868;1093;23078;-91
2021/07/04 04:58:39;;;;;;;12.20;8.75;;;;;;;16.10;83.80;96423.58;127900;1092;26078;-92
2021/07/04 05:01:10;;;;;;;10.23;7.90;;;;;;;16.13;83.65;96422.94;127867;1090;25286;-92
2021/07/04 05:03:41;;;;;;;15.33;9.07;;;;;;;16.22;83.70;96423.71;127884;1093;29628;-92
2021/07/04 05:06:13;;;;;;;12.08;8.85;;;;;;;16.33;83.66;96427.63;127881;1093;28467;-92
2021/07/04 05:08:44;;;;;;;12.88;8.18;;;;;;;16.38;83.44;96422.09;127887;1093;24378;-91
2021/07/04 05:11:16;;;;;;;10.55;8.23;;;;;;;16.46;83.49;96431.17;127910;1090;24434;-91
2021/07/04 05:13:47;;;;;;;15.00;8.63;;;;;;;16.51;83.32;96423.78;127870;1092;24307;-91
2021/07/04 05:16:19;;;;;;;11.55;8.18;;;;;;;16.57;83.19;96417.13;127902;1091;25917;-92
2021/07/04 05:18:50;;;;;;;11.45;8.33;;;;;;;16.63;83.22;96418.55;127895;1093;26596;-92
2021/07/04 05:21:22;;;;;;;10.63;8.60;;;;;;;16.71;82.83;96429.55;127966;1090;25973;-92
2021/07/04 05:23:53;;;;;;;13.03;9.00;;;;;;;16.67;82.47;96431.27;127931;1093;25409;-92
2021/07/04 05:26:24;;;;;;;11.28;8.18;;;;;;;16.63;82.25;96431.14;127972;1093;26133;-92
2021/07/04 05:28:56;;;;;;;12.35;8.10;;;;;;;16.67;82.75;96428.59;127873;1090;24312;-90
2021/07/04 05:31:28;;;;;;;10.78;8.88;;;;;;;16.77;82.57;96425.60;127921;1090;23747;-92
2021/07/04 05:34:00;;;;;;;12.68;8.58;;;;;;;16.83;82.36;96427.77;127866;1093;29993;-91
2021/07/04 05:36:31;;;;;;;12.23;8.75;;;;;;;16.96;82.19;96417.94;127842;1090;29459;-93
2021/07/04 05:39:02;;;;;;;12.45;8.93;;;;;;;17.13;82.17;96417.83;127874;1090;26245;-92
2021/07/04 05:41:34;;;;;;;10.88;8.23;;;;;;;17.61;82.55;96416.56;127887;1090;32646;-92
2021/07/04 05:44:05;;;;;;;11.18;8.55;;;;;;;19.54;84.44;96416.41;127893;1093;23513;-92
2021/07/04 05:46:38;;;;;;;10.33;7.48;;;;;;;22.50;80.88;96413.30;127911;1093;26233;-93
2021/07/04 05:49:11;;;;;;;9.75;7.65;;;;;;;25.20;76.49;96412.38;127921;1090;25165;-92
2021/07/04 05:51:43;;;;;;;8.73;6.70;;;;;;;27.25;70.92;96416.06;127875;1093;24169;-94
2021/07/04 05:54:14;;;;;;;9.38;7.15;;;;;;;28.92;66.59;96415.33;128122;1093;22810;-91
2021/07/04 05:56:46;;;;;;;9.53;6.68;;;;;;;30.41;63.45;96410.20;129875;1093;24448;-93
2021/07/04 05:59:17;;;;;;;9.43;6.85;;;;;;;31.40;59.07;96407.08;129803;1093;28332;-93
2021/07/04 06:01:48;;;;;;;10.75;6.88;;;;;;;32.62;57.44;96419.09;128171;1091;26358;-93
2021/07/04 06:04:20;;;;;;;8.90;6.28;;;;;;;33.62;54.21;96409.93;127884;1091;27566;-94
2021/07/04 06:06:52;;;;;;;7.83;6.38;;;;;;;34.09;51.49;96412.19;127860;1093;28505;-96
2021/07/04 06:09:23;;;;;;;8.60;6.15;;;;;;;34.08;48.80;96412.63;127931;1093;24812;-93
2021/07/04 06:11:55;;;;;;;7.08;6.08;;;;;;;33.45;46.36;96419.44;127922;1092;24605;-92
2021/07/04 06:14:26;;;;;;;9.88;6.38;;;;;;;33.86;46.09;96413.23;127872;1093;22801;-89
2021/07/04 06:16:57;;;;;;;6.78;6.03;;;;;;;34.34;44.10;96410.66;127868;1093;24408;-92
2021/07/04 06:19:29;;;;;;;7.70;6.30;;;;;;;34.18;44.02;96417.03;127874;1091;23837;-92
2021/07/04 06:22:00;;;;;;;10.23;6.63;;;;;;;34.66;44.47;96404.20;127884;1093;28066;-94
2021/07/04 06:24:32;;;;;;;6.90;5.23;;;;;;;35.56;38.94;96409.09;127853;1093;25431;-95
2021/07/04 06:27:03;;;;;;;6.48;4.55;;;;;;;35.67;39.11;96400.45;127886;1091;25622;-93
2021/07/04 06:29:35;;;;;;;6.93;4.68;;;;;;;35.85;35.58;96402.58;127903;1090;23701;-93
2021/07/04 06:32:08;;;;;;;6.35;5.35;;;;;;;35.15;33.97;96407.33;127897;1093;24124;-96
2021/07/04 06:34:39;;;;;;;7.00;4.85;;;;;;;35.35;35.63;96404.31;127850;1091;25520;-94
2021/07/04 06:37:10;;;;;;;7.55;4.80;;;;;;;35.40;33.04;96412.80;127891;1093;32284;-94
2021/07/04 06:39:42;;;;;;;5.50;4.20;;;;;;;32.43;35.29;96415.98;127863;1093;23550;-95
2021/07/04 06:42:13;;;;;;;5.78;4.63;;;;;;;30.05;36.08;96411.86;127867;1093;23540;-93
2021/07/04 06:44:45;;;;;;;6.23;4.58;;;;;;;28.65;38.57;96412.39;127896;1093;27038;-93
2021/07/04 06:47:16;;;;;;;6.55;4.40;;;;;;;28.12;40.80;96420.86;127907;1092;23371;-93
2021/07/04 06:49:48;;;;;;;6.20;4.10;;;;;;;28.16;41.56;96413.47;127869;1093;25018;-94
2021/07/04 06:52:20;;;;;;;8.50;5.33;;;;;;;27.91;42.19;96420.98;127893;1093;25153;-95
2021/07/04 06:54:51;;;;;;;9.38;4.83;;;;;;;27.51;43.38;96412.91;127957;1093;26239;-93
2021/07/04 06:57:29;;;;;;;7.80;5.35;;;;;;;27.75;44.14;96426.88;127921;1093;27021;-95
2021/07/04 07:00:03;;;;;;;8.43;5.88;;;;;;;27.90;43.21;96431.10;127865;1092;22838;-92
2021/07/04 07:02:35;;;;;;;12.20;5.53;;;;;;;27.23;43.15;96418.41;127956;1093;24105;-92
2021/07/04 07:05:08;;;;;;;7.80;5.73;;;;;;;26.57;43.62;96416.05;127881;1092;26083;-93
2021/07/04 07:07:41;;;;;;;10.53;5.48;;;;;;;26.09;44.37;96418.27;127916;1093;26050;-94
2021/07/04 07:10:14;;;;;;;9.48;5.73;;;;;;;25.77;45.17;96417.38;127877;1090;23288;-94
2021/07/04 07:12:46;;;;;;;10.75;7.25;;;;;;;25.55;45.75;96413.73;127890;1093;24213;-93
2021/07/04 07:15:18;;;;;;;10.30;6.05;;;;;;;25.35;46.90;96419.45;127900;1093;27008;-92
2021/07/04 07:17:50;;;;;;;7.63;5.33;;;;;;;25.78;47.48;96416.98;127914;1092;23797;-91
2021/07/04 07:20:21;;;;;;;9.00;5.48;;;;;;;26.19;46.67;96416.75;127966;1093;25424;-93
2021/07/04 07:22:53;;;;;;;8.98;5.55;;;;;;;26.67;46.29;96413.73;127953;1093;24424;-94
2021/07/04 07:25:25;;;;;;;8.00;5.43;;;;;;;26.67;46.25;96416.45;127970;1093;23789;-93
2021/07/04 07:27:56;;;;;;;9.85;5.30;;;;;;;26.63;45.91;96417.23;127975;1092;22777;-92
2021/07/04 07:30:28;;;;;;;7.50;5.35;;;;;;;26.47;46.24;96413.34;127879;1093;25455;-92
2021/07/04 07:33:00;;;;;;;10.20;5.38;;;;;;;26.40;46.61;96416.81;127902;1093;26526;-92
2021/07/04 07:35:32;;;;;;;10.55;5.35;;;;;;;26.26;46.49;96414.03;127897;1092;25461;-93
2021/07/04 07:38:04;;;;;;;8.28;5.70;;;;;;;26.03;46.72;96420.55;127906;1093;26230;-94
2021/07/04 07:40:37;;;;;;;10.80;5.53;;;;;;;25.98;46.32;96414.72;127883;1090;25122;-94
2021/07/04 07:43:09;;;;;;;8.83;5.35;;;;;;;25.67;45.99;96413.41;127921;1093;26296;-93
2021/07/04 07:45:40;;;;;;;9.95;5.33;;;;;;;25.26;45.54;96410.86;127871;1093;24154;-94
2021/07/04 07:48:13;;;;;;;7.68;5.30;;;;;;;25.07;46.26;96403.77;127905;1092;24718;-93
2021/07/04 07:50:44;;;;;;;9.60;5.45;;;;;;;24.98;46.73;96405.22;127845;1090;26980;-92
2021/07/04 07:53:16;;;;;;;9.10;5.13;;;;;;;25.17;47.49;96413.12;127911;1092;23803;-92
2021/07/04 07:55:49;;;;;;;9.10;5.10;;;;;;;25.54;47.21;96406.75;127895;1090;24558;-93
2021/07/04 07:58:21;;;;;;;7.90;5.30;;;;;;;26.02;48.03;96408.13;127904;1093;23727;-93
2021/07/04 08:00:52;;;;;;;5.43;4.50;;;;;;;27.94;48.25;96417.45;127925;1093;24719;-91
2021/07/04 08:03:23;;;;;;;7.47;4.37;;;;;;;29.77;46.69;96407.49;127930;1093;24453;-96
2021/07/04 08:05:55;;;;;;;6.98;4.88;;;;;;;32.16;45.13;96404.41;127963;1093;24732;-93
2021/07/04 08:08:27;;;;;;;8.93;4.48;;;;;;;33.96;41.79;96397.64;127841;1092;23471;-88
2021/07/04 08:10:58;;;;;;;6.28;4.55;;;;;;;35.09;38.62;96390.60;127849;1093;30198;-93
2021/07/04 08:13:30;;;;;;;5.20;4.30;;;;;;;36.31;37.24;96392.55;127919;1093;22913;-93
2021/07/04 08:16:02;;;;;;;7.30;4.23;;;;;;;36.27;36.87;96397.45;127852;1093;27279;-92
2021/07/04 08:18:33;;;;;;;5.23;3.78;;;;;;;37.73;36.29;96395.07;127861;1092;23253;-94
2021/07/04 08:21:05;;;;;;;5.30;4.08;;;;;;;38.97;31.96;96382.16;127865;1093;23284;-95
2021/07/04 08:23:37;;;;;;;5.80;3.88;;;;;;;35.92;32.45;96394.83;127883;1093;24580;-92
2021/07/04 08:26:09;;;;;;;6.88;4.10;;;;;;;34.64;33.86;96390.88;127859;1090;26976;-92
2021/07/04 08:28:41;;;;;;;6.35;4.45;;;;;;;32.60;34.41;96378.34;127901;1093;23960;-95
2021/07/04 08:31:12;;;;;;;6.58;4.23;;;;;;;32.74;36.09;96388.98;127891;1093;23296;-95
2021/07/04 08:33:44;;;;;;;5.65;4.38;;;;;;;33.20;34.40;96383.56;127899;1093;24026;-92
2021/07/04 08:36:15;;;;;;;7.28;4.43;;;;;;;32.96;33.95;96394.77;127880;1093;22949;-92
2021/07/04 08:38:47;;;;;;;7.60;4.45;;;;;;;34.38;35.87;96386.59;127865;1092;22783;-95
2021/07/04 08:41:19;;;;;;;6.35;4.33;;;;;;;34.42;32.23;96381.74;127861;1093;23412;-92
2021/07/04 08:43:52;;;;;;;7.23;4.20;;;;;;;34.20;34.49;96387.86;127868;1093;27308;-94
2021/07/04 08:46:23;;;;;;;6.98;4.48;;;;;;;34.26;31.06;96381.83;127965;1093;26107;-93
2021/07/04 08:48:55;;;;;;;8.33;4.28;;;;;;;32.56;31.38;96377.67;127956;1093;27639;-93
2021/07/04 08:51:27;;;;;;;7.30;4.30;;;;;;;30.55;34.17;96381.86;127916;1093;25316;-89
2021/07/04 08:53:59;;;;;;;8.75;5.70;;;;;;;28.97;35.28;96382.14;127894;1093;27220;-92
2021/07/04 08:56:30;;;;;;;8.23;5.23;;;;;;;28.11;36.81;96383.88;127923;1093;24049;-92
2021/07/04 08:59:02;;;;;;;6.80;4.98;;;;;;;27.42;37.73;96381.80;127874;1093;24666;-93
2021/07/04 09:01:34;;;;;;;7.90;5.13;;;;;;;27.23;38.76;96374.86;127895;1093;23675;-93
2021/07/04 09:04:15;;;;;;;6.60;4.90;;;;;;;27.12;38.57;96376.82;127855;1093;24762;-92
2021/07/04 09:06:48;;;;;;;5.38;4.23;;;;;;;27.03;39.86;96371.80;127819;1093;27548;-93
2021/07/04 09:09:25;;;;;;;5.30;4.05;;;;;;;26.97;40.75;96369.81;127857;1093;32814;-94
2021/07/04 09:11:59;;;;;;;6.75;4.75;;;;;;;27.01;40.54;96363.22;127878;1093;25388;-91
2021/07/04 09:14:37;;;;;;;6.88;4.75;;;;;;;26.75;40.79;96364.41;127854;1093;24418;-93
2021/07/04 09:17:11;;;;;;;7.18;4.93;;;;;;;26.70;40.49;96369.44;127869;1092;23636;-92
2021/07/04 09:19:55;;;;;;;6.85;4.80;;;;;;;26.16;41.61;96368.58;127921;1093;24877;-92
2021/07/04 09:22:31;;;;;;;7.40;5.13;;;;;;;25.68;40.68;96375.05;127902;1093;26765;-89
2021/07/04 09:25:12;;;;;;;7.57;5.10;;;;;;;25.25;42.02;96367.83;127911;1093;25049;-94
2021/07/04 09:28:01;;;;;;;7.83;4.48;;;;;;;24.90;42.84;96365.63;127902;1093;27585;-92
2021/07/04 09:30:38;;;;;;;6.27;4.40;;;;;;;25.21;43.05;96365.10;127880;1093;26494;-93
2021/07/04 09:33:16;;;;;;;6.68;4.93;;;;;;;25.50;43.67;96355.17;127893;1093;28516;-93
2021/07/04 09:35:59;;;;;;;10.23;4.95;;;;;;;25.53;43.67;96359.83;127883;1093;30153;-92
2021/07/04 09:38:36;;;;;;;5.90;4.43;;;;;;;24.85;42.97;96359.41;127915;1093;22788;-92
2021/07/04 09:41:11;;;;;;;6.35;4.20;;;;;;;24.26;43.06;96361.22;127888;1092;27293;-92
2021/07/04 09:43:43;;;;;;;5.90;4.63;;;;;;;23.59;44.22;96358.56;127903;1093;24714;-92
2021/07/04 09:46:17;;;;;;;7.28;4.90;;;;;;;23.64;45.35;96352.81;127865;1093;26141;-91
2021/07/04 09:48:50;;;;;;;7.30;4.80;;;;;;;23.85;44.98;96341.45;127874;1093;30021;-92
2021/07/04 09:51:24;;;;;;;9.08;4.78;;;;;;;23.82;46.05;96350.33;127926;1093;26067;-92
2021/07/04 09:53:57;;;;;;;8.20;4.98;;;;;;;23.81;46.41;96347.99;127965;1092;29352;-92
2021/07/04 09:56:32;;;;;;;6.28;4.30;;;;;;;23.80;46.16;96339.09;127917;1093;27393;-93
2021/07/04 09:59:05;;;;;;;7.55;4.05;;;;;;;24.09;46.97;96342.88;127916;1093;24730;-94
2021/07/04 10:01:39;;;;;;;5.43;4.00;;;;;;;24.38;45.95;96337.75;127870;1093;26366;-94
2021/07/04 10:04:28;;;;;;;6.67;4.50;;;;;;;24.63;46.75;96335.22;127807;1093;28191;-96
2021/07/04 10:07:00;;;;;;;4.93;4.18;;;;;;;24.68;46.24;96338.38;127849;1093;27667;-92
2021/07/04 10:09:32;;;;;;;5.23;3.98;;;;;;;24.49;45.78;96341.30;127908;1090;25862;-92
2021/07/04 10:12:04;;;;;;;7.30;4.58;;;;;;;24.34;46.26;96339.63;127858;1093;25403;-94
2021/07/04 10:14:37;;;;;;;6.83;5.00;;;;;;;24.19;45.96;96325.92;127876;1093;26055;-93
2021/07/04 10:17:09;;;;;;;7.25;4.38;;;;;;;24.13;46.51;96335.55;127888;1093;26378;-93
2021/07/04 10:19:42;;;;;;;5.85;4.60;;;;;;;24.32;46.67;96329.16;127908;1092;23612;-93
2021/07/04 10:22:14;;;;;;;7.65;4.30;;;;;;;24.41;46.27;96320.73;127848;1093;56148;-93
2021/07/04 10:24:47;;;;;;;6.18;4.58;;;;;;;24.47;46.27;96321.93;127898;1092;23723;-94
2021/07/04 10:27:20;;;;;;;6.30;4.43;;;;;;;24.50;46.53;96305.72;127920;1093;24313;-94
2021/07/04 10:29:52;;;;;;;5.88;4.40;;;;;;;24.39;46.38;96312.20;127951;1093;24414;-94
2021/07/04 10:32:24;;;;;;;7.70;4.28;;;;;;;24.44;46.96;96312.63;127958;1093;26237;-93
2021/07/04 10:35:05;;;;;;;8.18;4.90;;;;;;;24.52;47.00;96302.63;127964;1090;25004;-92
2021/07/04 10:37:39;;;;;;;7.50;4.58;;;;;;;24.53;46.61;96298.77;127903;1093;24571;-94
2021/07/04 10:40:15;;;;;;;7.10;4.90;;;;;;;24.48;45.61;96289.03;127868;1090;27322;-95
2021/07/04 10:42:47;;;;;;;7.27;4.43;;;;;;;24.28;46.47;96293.11;127907;1093;24405;-93
2021/07/04 10:45:37;;;;;;;6.23;4.25;;;;;;;24.48;47.21;96282.84;127898;1093;25152;-92
2021/07/04 10:48:26;;;;;;;7.28;4.80;;;;;;;24.70;46.42;96287.27;127877;1093;25908;-91
2021/07/04 10:51:13;;;;;;;5.98;4.20;;;;;;;24.45;44.48;96280.88;127858;1093;26667;-90
2021/07/04 10:53:50;;;;;;;7.33;4.85;;;;;;;24.17;45.57;96284.89;127885;1093;24250;-92
2021/07/04 10:56:44;;;;;;;6.18;4.18;;;;;;;24.01;46.19;96281.66;127978;1093;22780;-94
2021/07/04 10:59:17;;;;;;;7.18;5.05;;;;;;;23.79;45.80;96290.71;127916;1090;23408;-93
2021/07/04 11:01:55;;;;;;;6.38;4.50;;;;;;;23.59;47.37;96288.20;127904;1091;22973;-93
2021/07/04 11:04:56;;;;;;;8.28;4.70;;;;;;;23.39;46.36;96284.09;127958;1090;26287;-92
2021/07/04 11:07:47;;;;;;;6.90;4.70;;;;;;;23.12;47.17;96288.00;127514;1093;28700;-91
2021/07/04 11:10:25;;;;;;;7.05;4.90;;;;;;;22.90;48.16;96285.00;127857;1093;23715;-93
2021/07/04 11:12:58;;;;;;;7.05;4.85;;;;;;;22.83;48.81;96286.84;127961;1090;23571;-93
2021/07/04 11:15:33;;;;;;;7.53;4.75;;;;;;;22.89;48.10;96290.77;127894;1093;28665;-93
2021/07/04 11:18:10;;;;;;;5.95;4.35;;;;;;;22.97;48.58;96282.41;127895;1093;24549;-93
2021/07/04 11:20:58;;;;;;;6.33;5.23;;;;;;;22.96;47.91;96280.84;127887;1090;25845;-93
2021/07/04 11:23:30;;;;;;;7.93;4.90;;;;;;;23.07;47.87;96281.74;127902;1093;24390;-93
2021/07/04 11:26:12;;;;;;;6.25;4.63;;;;;;;23.18;48.36;96281.89;127905;1090;27436;-94
2021/07/04 11:28:45;;;;;;;6.15;4.58;;;;;;;23.21;48.41;96280.37;127915;1090;27070;-93
2021/07/04 11:31:32;;;;;;;5.50;4.53;;;;;;;23.30;49.48;96278.17;127886;1093;24555;-93
2021/07/04 11:34:09;;;;;;;7.65;4.68;;;;;;;23.40;47.94;96272.11;127912;1092;23723;-93
2021/07/04 11:36:40;;;;;;;7.00;5.03;;;;;;;23.40;46.78;96259.36;127915;1093;26875;-93
2021/07/04 11:39:22;;;;;;;7.45;4.70;;;;;;;23.05;46.52;96267.04;128798;1092;29567;-91
2021/07/04 11:41:54;;;;;;;6.60;4.63;;;;;;;22.88;47.77;96265.66;130237;1088;29933;-92
2021/07/04 11:44:26;;;;;;;7.18;4.65;;;;;;;23.00;48.02;96264.66;129902;1092;24500;-92
2021/07/04 11:46:58;;;;;;;6.05;4.73;;;;;;;23.16;47.96;96264.48;127962;1093;26651;-92